METAR AND TAF INFORMATION
METAR FOR LFLB
ADDS - METARS form results

(0825 UTC 13 April 2021)
Data provider http://aviationweather.gov/metar/data/
 
METAR text: LFLB 130800Z AUTO 01011KT 340V040 CAVOK 07/00 Q1027 NOSIG
Conditions at: LFLB (CHAMBERY/AIX BAI, FR) observed 0800 UTC 13 April 2021
Temperature: 7.0°C (45°F)
Dewpoint: 0.0°C (32°F) [RH = 61%]
Pressure (altimeter): 30.32 inches Hg (1027.0 mb)
Winds: from the N (10 degrees) at 13 MPH (11 knots; 5.7 m/s)
Visibility: 6 or more miles (10+ km)
Ceiling: ceiling and visibility are OK
Clouds: unknown
Weather: no significant weather observed at this time

METAR text: LFLB 130730Z AUTO 02010KT CAVOK 07/00 Q1027 NOSIG
Conditions at: LFLB (CHAMBERY/AIX BAI, FR) observed 0730 UTC 13 April 2021
Temperature: 7.0°C (45°F)
Dewpoint: 0.0°C (32°F) [RH = 61%]
Pressure (altimeter): 30.32 inches Hg (1027.0 mb)
Winds: from the NNE (20 degrees) at 12 MPH (10 knots; 5.1 m/s)
Visibility: 6 or more miles (10+ km)
Ceiling: ceiling and visibility are OK
Clouds: unknown
Weather: no significant weather observed at this time

Forecast for: LFLB (CHAMBERY/AIX BAI, FR)
Text: TAF LFLB 130800Z 1309/1409 36015KT CAVOK
Forecast period: 0900 UTC 13 April 2021 to 0900 UTC 14 April 2021
Forecast type: FROM: standard forecast or significant change
Winds: from the N (360 degrees) at 17 MPH (15 knots; 7.7 m/s)
Visibility: 6 or more miles (10+ km)
Ceiling: unknown
Clouds: missing
Weather: NSW  (no significant weather)

 AIRPORT MAP

 RUNWAY INFORMATION
Runway 18 Runway length 6628 ft Runway width 148 ft
Runway elevation 769 ft Runway displaced threshold 755 ft Runway heading 176
Runway 36 Runway length 6628 ft Runway width 148 ft
Runway elevation 778 ft Runway displaced threshold 460 ft Runway heading 356

 AIRPORT FREQUENCIES
Type APP Name CHAMBERY A Frequency 123.7 MHZ
Type ATIS Name CHAMBERY A Frequency 124.575 MHZ
Type TWR Name CHAMBERY T Frequency 118.3 MHZ

 AIRPORT NEAR NAVIGATION AIDS